Aviation Digital Data Service (ADDS)

Output produced by METARs form (1232 UTC 08 May 2021)
found at http://aviationweather.gov/metar/data/
 
KASD 081153Z AUTO 00000KT 10SM CLR 14/12 A3009 RMK AO2 SLP190 T01440122 10161 20133 53004
KASD 081120Z 0812/0912 00000KT P6SM FEW250 
     FM081800 16010G18KT P6SM SKC 
     FM091000 18005KT P6SM SCT003